Saturday, February 24, 2018, 4:55 AM EST
Back to Local

KSNC, Chester, Chester Airport

Location: Chester, CT, United States Lat: 41.384
Local Time: 4:55 AM EST ( 9:55 GMT) Lon: -72.506
Time Zone: US/Eastern Elev: 416 ft

Show me the last for .
Show Decoded

2018-02-24 04:35 METAR KSNC 240935Z AUTO VRB05KT 3SM BR OVC002 04/04 A3008 RMK AO2 =
2018-02-24 04:15 METAR KSNC 240915Z AUTO 00000KT 3SM BR OVC002 04/04 A3008 RMK AO2 =
2018-02-24 03:55 METAR KSNC 240855Z AUTO VRB06G11KT 4SM BR OVC003 04/04 A3008 RMK AO2 =
2018-02-24 03:35 METAR KSNC 240835Z AUTO VRB03KT 4SM BR OVC002 04/04 A3008 RMK AO2 =
2018-02-24 03:15 METAR KSNC 240815Z AUTO 25006G11KT 3SM BR OVC002 04/04 A3008 RMK AO2 =
2018-02-24 02:55 METAR KSNC 240755Z AUTO 24007KT 4SM BR OVC003 04/04 A3009 RMK AO2 =
2018-02-24 02:35 METAR KSNC 240735Z AUTO VRB06G11KT 5SM BR OVC003 04/04 A3010 RMK AO2 =
2018-02-24 02:15 METAR KSNC 240715Z AUTO 27007KT 240V320 5SM BR OVC003 04/04 A3011 RMK AO2 =
2018-02-24 01:55 METAR KSNC 240655Z AUTO 28007KT 5SM BR OVC003 04/04 A3010 RMK AO2 =
2018-02-24 01:35 METAR KSNC 240635Z AUTO 26007G13KT 220V300 5SM BR OVC003 04/04 A3011 RMK AO2 =
2018-02-24 01:15 METAR KSNC 240615Z AUTO 26005G13KT 3SM BR OVC002 04/04 A3012 RMK AO2 =
2018-02-24 00:55 METAR KSNC 240555Z AUTO 24009G18KT 210V270 2SM BR OVC001 04/04 A3012 RMK AO2 =
2018-02-24 00:35 METAR KSNC 240535Z AUTO 24008G15KT 210V270 2SM BR OVC001 04/03 A3012 RMK AO2 =
2018-02-24 00:15 METAR KSNC 240515Z AUTO VRB06G11KT 1 1/4SM BR OVC001 03/03 A3012 RMK AO2 =
2018-02-23 23:55 METAR KSNC 240455Z AUTO VRB05KT 1 1/4SM BR OVC001 03/03 A3014 RMK AO2 =
2018-02-23 23:35 METAR KSNC 240435Z AUTO VRB03KT 3/4SM BR OVC001 03/03 A3013 RMK AO2 =
2018-02-23 23:15 METAR KSNC 240415Z AUTO 00000KT 1SM BR OVC001 03/03 A3014 RMK AO2 =
2018-02-23 22:55 METAR KSNC 240355Z AUTO 29003KT 1 1/2SM BR OVC001 03/03 A3015 RMK AO2 =
2018-02-23 22:35 METAR KSNC 240335Z AUTO 00000KT 1SM BR OVC001 03/02 A3016 RMK AO2 =
2018-02-23 22:15 METAR KSNC 240315Z AUTO 00000KT 3/4SM BR OVC001 03/02 A3018 RMK AO2 =
2018-02-23 21:55 METAR KSNC 240255Z AUTO 00000KT 1SM BR OVC001 03/02 A3018 RMK AO2 =
2018-02-23 21:35 METAR KSNC 240235Z AUTO 00000KT 3/4SM BR OVC001 03/02 A3019 RMK AO2 =
2018-02-23 21:15 METAR KSNC 240215Z AUTO 00000KT 3/4SM BR OVC001 03/02 A3021 RMK AO2 =
2018-02-23 20:55 METAR KSNC 240155Z AUTO 00000KT 3/4SM BR OVC001 03/02 A3022 RMK AO2 =
2018-02-23 20:35 METAR KSNC 240135Z AUTO 00000KT 3/4SM BR OVC001 03/02 A3022 RMK AO2 =
2018-02-23 20:15 METAR KSNC 240115Z AUTO 00000KT 3/4SM BR OVC001 03/02 A3024 RMK AO2 =
2018-02-23 19:55 METAR KSNC 240055Z AUTO 00000KT 1 1/4SM BR OVC001 03/02 A3026 RMK AO2 =
2018-02-23 19:35 METAR KSNC 240035Z AUTO 16005KT 2SM -RA OVC002 03/02 A3026 RMK AO2 =
2018-02-23 19:15 METAR KSNC 240015Z AUTO 16006KT 1 3/4SM -RA OVC002 02/02 A3028 RMK AO2 =
2018-02-23 18:55 METAR KSNC 232355Z AUTO 17003KT 2SM -RA OVC002 02/02 A3030 RMK AO2 =
2018-02-23 18:35 METAR KSNC 232335Z AUTO 15006KT 1 3/4SM -RA OVC001 02/02 A3030 RMK AO2 =
2018-02-23 18:15 METAR KSNC 232315Z AUTO 14007KT 1 3/4SM -RA OVC001 02/02 A3031 RMK AO2 =
2018-02-23 17:55 METAR KSNC 232255Z AUTO 13005KT 4SM BR OVC002 02/02 A3032 RMK AO2 =
2018-02-23 17:35 METAR KSNC 232235Z AUTO 14007KT 2SM -RA OVC002 02/02 A3034 RMK AO2 =
2018-02-23 17:15 METAR KSNC 232215Z AUTO 14006KT 1 3/4SM -RA OVC003 02/02 A3035 RMK AO2 =
2018-02-23 15:55 METAR KSNC 232055Z AUTO 14007KT 100V160 3SM -RA OVC005 02/02 A3041 RMK AO2 =
2018-02-23 15:35 METAR KSNC 232035Z AUTO 11006KT 2 1/2SM -RA BKN005 OVC010 02/01 A3042 RMK AO2 =
2018-02-23 15:15 METAR KSNC 232015Z AUTO 11006KT 2SM -RA OVC007 02/01 A3043 RMK AO2 =
2018-02-23 14:55 METAR KSNC 231955Z AUTO 12008KT 8SM BKN008 OVC011 03/01 A3044 RMK AO2 =
2018-02-23 14:35 METAR KSNC 231935Z AUTO 09006KT 2 1/2SM -UP FEW001 SCT009 OVC013 02/01 A3045 RMK
                 AO2 =
2018-02-23 14:15 METAR KSNC 231915Z AUTO 12004KT 7SM BKN014 OVC021 03/00 A3046 RMK AO2 =
2018-02-23 13:55 METAR KSNC 231855Z AUTO 10007KT 060V130 6SM HZ OVC017 03/M00 A3049 RMK AO2 =
2018-02-23 13:35 METAR KSNC 231835Z AUTO 11005KT 5SM -RA OVC019 03/M01 A3049 RMK AO2 =
2018-02-23 13:15 METAR KSNC 231815Z AUTO 10007G12KT 080V140 10SM OVC019 03/M01 A3052 RMK AO2 =
2018-02-23 12:55 METAR KSNC 231755Z AUTO VRB05G13KT 9SM BKN021 OVC027 03/M01 A3054 RMK AO2 =
2018-02-23 12:35 METAR KSNC 231735Z AUTO 13012KT 10SM BKN021 OVC028 03/M01 A3053 RMK AO2 =
2018-02-23 12:15 METAR KSNC 231715Z AUTO 12006KT 10SM BKN021 OVC029 03/M01 A3054 RMK AO2 =
2018-02-23 11:55 METAR KSNC 231655Z AUTO 13007G14KT 100V170 3SM HZ BKN021 OVC031 03/M01 A3057 RMK
                 AO2 =
2018-02-23 11:35 METAR KSNC 231635Z AUTO VRB06G13KT 7SM -RA BKN022 OVC031 04/M01 A3059 RMK AO2 =
2018-02-23 11:15 METAR KSNC 231615Z AUTO 13009G15KT 10SM OVC022 04/M02 A3060 RMK AO2 =
2018-02-23 10:55 METAR KSNC 231555Z AUTO 13006KT 10SM BKN021 BKN026 OVC044 04/M01 A3061 RMK AO2 =
2018-02-23 10:35 METAR KSNC 231535Z AUTO 13008KT 10SM BKN020 BKN045 OVC060 04/M01 A3061 RMK AO2 =
2018-02-23 10:15 METAR KSNC 231515Z AUTO 12007G14KT 10SM BKN019 SCT050 OVC070 04/M01 A3062 RMK
                 AO2 =
2018-02-23 09:55 METAR KSNC 231455Z AUTO 10007KT 070V140 10SM BKN017 BKN048 OVC085 03/M01 A3060
                 RMK AO2 =
2018-02-23 09:35 METAR KSNC 231435Z AUTO 08007G14KT 060V120 10SM BKN017 BKN048 BKN075 03/M01
                 A3062 RMK AO2 =
2018-02-23 09:15 METAR KSNC 231415Z AUTO 09006G13KT 10SM SCT015 SCT031 BKN085 03/M01 A3063 RMK
                 AO2 =
2018-02-23 08:55 METAR KSNC 231355Z AUTO 08004G11KT 10SM BKN012 BKN018 BKN031 02/M01 A3064 RMK
                 AO2 =
2018-02-23 08:35 METAR KSNC 231335Z AUTO 08009KT 050V110 10SM BKN011 BKN046 BKN100 02/M01 A3064
                 RMK AO2 =
2018-02-23 08:15 METAR KSNC 231315Z AUTO 07006KT 9SM BKN010 BKN013 BKN100 01/M01 A3066 RMK AO2 =
2018-02-23 07:55 METAR KSNC 231255Z AUTO 06007KT 9SM BKN009 01/M01 A3066 RMK AO2 =
2018-02-23 07:35 METAR KSNC 231235Z AUTO 06004KT 8SM FEW009 SCT110 01/M01 A3066 RMK AO2 =
2018-02-23 07:15 METAR KSNC 231215Z AUTO 04004KT 9SM CLR 01/M00 A3066 RMK AO2 =
2018-02-23 06:55 METAR KSNC 231155Z AUTO 04004KT 9SM CLR 00/M01 A3066 RMK AO2 =
2018-02-23 06:35 METAR KSNC 231135Z AUTO 03004KT 8SM CLR M00/M01 A3065 RMK AO2 =
2018-02-23 06:15 METAR KSNC 231115Z AUTO 04004KT 9SM CLR M00/M01 A3065 RMK AO2 =
2018-02-23 05:55 METAR KSNC 231055Z AUTO 04003KT 7SM CLR M00/M01 A3065 RMK AO2 =
2018-02-23 05:35 METAR KSNC 231035Z AUTO 00000KT 8SM CLR 00/M01 A3066 RMK AO2 =
2018-02-23 05:15 METAR KSNC 231015Z AUTO 7SM CLR 00/M01 A3066 RMK AO2 =

Support USWX by starting your Amazon purchase here.